createdAt,value
2023-02-01T00:01:09.613Z,11.43
2023-02-01T00:03:36.583Z,11.57
2023-02-01T00:06:03.775Z,11.90
2023-02-01T00:08:30.607Z,12.13
2023-02-01T00:11:04.581Z,11.70
2023-02-01T00:13:32.703Z,11.33
2023-02-01T00:16:06.585Z,10.60
2023-02-01T00:18:35.233Z,10.23
2023-02-01T00:21:02.258Z,9.67
2023-02-01T00:23:29.068Z,9.97
2023-02-01T00:25:55.803Z,9.87
2023-02-01T00:28:22.355Z,8.60
2023-02-01T00:30:57.575Z,8.50
2023-02-01T00:33:24.547Z,8.00
2023-02-01T00:35:51.103Z,7.63
2023-02-01T00:38:17.730Z,6.63
2023-02-01T00:40:44.398Z,6.70
2023-02-01T00:43:11.031Z,6.77
2023-02-01T00:45:37.830Z,6.63
2023-02-01T00:48:04.805Z,5.83
2023-02-01T00:50:31.355Z,6.30
2023-02-01T00:52:58.023Z,5.53
2023-02-01T00:55:24.569Z,5.63
2023-02-01T00:57:51.115Z,5.33
2023-02-01T01:00:18.233Z,5.13
2023-02-01T01:02:44.803Z,4.90
2023-02-01T01:05:11.364Z,5.50
2023-02-01T01:07:38.065Z,4.97
2023-02-01T01:10:04.977Z,5.10
2023-02-01T01:12:31.507Z,4.70
2023-02-01T01:14:58.159Z,5.80
2023-02-01T01:17:24.770Z,5.07
2023-02-01T01:19:51.268Z,5.00
2023-02-01T01:22:19.099Z,4.67
2023-02-01T01:24:45.654Z,4.67
2023-02-01T01:27:12.292Z,4.53
2023-02-01T01:29:39.022Z,5.17
2023-02-01T01:32:05.570Z,4.50
2023-02-01T01:34:32.170Z,4.67
2023-02-01T01:36:59.194Z,4.00
2023-02-01T01:39:25.761Z,5.27
2023-02-01T01:41:52.367Z,4.53
2023-02-01T01:44:56.540Z,3.83
2023-02-01T01:47:23.317Z,5.17
2023-02-01T01:49:50.463Z,4.87
2023-02-01T01:52:19.032Z,4.60
2023-02-01T01:54:50.307Z,4.27
2023-02-01T01:57:25.658Z,4.70
2023-02-01T02:00:04.580Z,4.70
2023-02-01T02:02:31.676Z,5.80
2023-02-01T02:04:58.308Z,5.10
2023-02-01T02:07:29.252Z,4.27
2023-02-01T02:10:00.836Z,4.77
2023-02-01T02:12:28.512Z,4.77
2023-02-01T02:14:55.641Z,5.17
2023-02-01T02:17:56.379Z,5.47
2023-02-01T02:20:54.669Z,4.73
2023-02-01T02:23:35.414Z,5.53
2023-02-01T02:26:14.533Z,5.80
2023-02-01T02:28:53.309Z,5.53
2023-02-01T02:31:40.432Z,5.20
2023-02-01T02:34:26.643Z,4.97
2023-02-01T02:36:53.640Z,5.37
2023-02-01T02:39:23.309Z,5.00
2023-02-01T02:42:27.967Z,5.27
2023-02-01T02:45:36.078Z,5.03
2023-02-01T02:48:25.159Z,5.03
2023-02-01T02:51:40.989Z,4.40
2023-02-01T02:54:38.586Z,4.60
2023-02-01T02:57:26.883Z,5.77
2023-02-01T03:00:12.517Z,5.03
2023-02-01T03:02:57.768Z,4.70
2023-02-01T03:05:24.503Z,4.40
2023-02-01T03:08:15.393Z,4.23
2023-02-01T03:10:51.383Z,4.90
2023-02-01T03:13:28.660Z,4.17
2023-02-01T03:16:07.477Z,4.50
2023-02-01T03:18:49.888Z,4.53
2023-02-01T03:21:30.208Z,4.90
2023-02-01T03:24:02.417Z,4.47
2023-02-01T03:26:30.913Z,4.37
2023-02-01T03:29:04.109Z,4.13
2023-02-01T03:31:30.739Z,4.27
2023-02-01T03:33:57.518Z,3.60
2023-02-01T03:36:34.248Z,3.93
2023-02-01T03:39:12.999Z,4.77
2023-02-01T03:41:53.524Z,4.50
2023-02-01T03:44:38.237Z,3.87
2023-02-01T03:47:10.655Z,3.87
2023-02-01T03:49:41.688Z,4.30
2023-02-01T03:52:14.902Z,5.03
2023-02-01T03:54:41.836Z,3.93
2023-02-01T03:57:12.611Z,3.67
2023-02-01T03:59:44.634Z,4.63
2023-02-01T04:02:12.210Z,4.00
2023-02-01T04:04:40.305Z,3.67
2023-02-01T04:07:06.992Z,4.50
2023-02-01T04:09:33.634Z,4.07
2023-02-01T04:12:00.299Z,4.33
2023-02-01T04:14:26.973Z,4.63
2023-02-01T04:16:53.900Z,4.30
2023-02-01T04:19:20.699Z,4.37
2023-02-01T04:21:47.273Z,4.80
2023-02-01T04:24:13.861Z,4.47
2023-02-01T04:26:40.681Z,4.57
2023-02-01T04:29:07.406Z,4.37
2023-02-01T04:31:37.625Z,4.77
2023-02-01T04:34:04.355Z,4.67
2023-02-01T04:36:31.076Z,4.93
2023-02-01T04:38:58.512Z,4.73
2023-02-01T04:41:25.097Z,4.03
2023-02-01T04:43:53.046Z,4.10
2023-02-01T04:46:19.791Z,4.77
2023-02-01T04:48:46.416Z,4.37
2023-02-01T04:51:13.567Z,5.00
2023-02-01T04:53:40.247Z,5.03
2023-02-01T04:56:07.382Z,4.70
2023-02-01T04:58:34.017Z,3.83
2023-02-01T05:01:05.578Z,4.80
2023-02-01T05:03:36.090Z,4.97
2023-02-01T05:06:05.129Z,4.47
2023-02-01T05:08:32.344Z,4.50
2023-02-01T05:10:59.882Z,4.90
2023-02-01T05:13:45.299Z,4.30
2023-02-01T05:16:11.893Z,5.03
2023-02-01T05:18:38.501Z,4.93
2023-02-01T05:21:05.483Z,5.23
2023-02-01T05:23:32.244Z,4.90
2023-02-01T05:26:02.170Z,6.63
2023-02-01T05:28:29.692Z,5.53
2023-02-01T05:30:56.511Z,5.10
2023-02-01T05:33:23.235Z,5.53
2023-02-01T05:35:51.517Z,4.80
2023-02-01T05:38:18.249Z,4.07
2023-02-01T05:40:50.911Z,4.67
2023-02-01T05:43:17.825Z,5.07
2023-02-01T05:45:44.513Z,5.63
2023-02-01T05:48:11.057Z,5.27
2023-02-01T05:50:37.817Z,5.13
2023-02-01T05:53:04.393Z,4.73
2023-02-01T05:55:30.958Z,4.43
2023-02-01T05:57:57.592Z,5.60
2023-02-01T06:00:24.698Z,5.13
2023-02-01T06:02:51.385Z,5.50
2023-02-01T06:05:18.208Z,4.77
2023-02-01T06:07:44.738Z,5.80
2023-02-01T06:10:11.921Z,5.17
2023-02-01T06:12:38.559Z,5.43
2023-02-01T06:15:05.797Z,4.77
2023-02-01T06:17:32.368Z,5.43
2023-02-01T06:19:58.924Z,4.53
2023-02-01T06:22:28.476Z,4.90
2023-02-01T06:24:57.328Z,4.67
2023-02-01T06:27:24.351Z,4.50
2023-02-01T06:29:50.868Z,4.70
2023-02-01T06:32:18.543Z,4.20
2023-02-01T06:34:45.131Z,4.97
2023-02-01T06:37:12.393Z,4.93
2023-02-01T06:39:39.075Z,4.90
2023-02-01T06:42:05.686Z,4.33
2023-02-01T06:44:32.471Z,4.87
2023-02-01T06:46:59.227Z,4.60
2023-02-01T06:49:25.793Z,4.73
2023-02-01T06:51:52.343Z,8.47
2023-02-01T06:54:19.193Z,4.60
2023-02-01T06:56:45.773Z,5.07
2023-02-01T06:59:12.674Z,5.43
2023-02-01T07:01:39.382Z,4.77
2023-02-01T07:04:06.052Z,4.70
2023-02-01T07:06:32.684Z,4.90
2023-02-01T07:08:59.290Z,4.17
2023-02-01T07:11:28.462Z,4.70
2023-02-01T07:13:55.574Z,5.20
2023-02-01T07:16:22.211Z,4.50
2023-02-01T07:18:50.375Z,4.50
2023-02-01T07:21:16.944Z,4.50
2023-02-01T07:23:44.016Z,5.23
2023-02-01T07:26:13.477Z,5.47
2023-02-01T07:28:41.021Z,5.23
2023-02-01T07:31:12.638Z,4.97
2023-02-01T07:33:39.319Z,4.33
2023-02-01T07:36:07.686Z,4.60
2023-02-01T07:38:34.666Z,5.57
2023-02-01T07:41:02.656Z,5.63
2023-02-01T07:43:29.878Z,5.33
2023-02-01T07:45:57.103Z,4.77
2023-02-01T07:48:24.707Z,5.03
2023-02-01T07:51:00.958Z,5.10
2023-02-01T07:53:28.070Z,5.17
2023-02-01T07:55:59.068Z,4.73
2023-02-01T07:58:26.791Z,5.70
2023-02-01T08:01:12.507Z,5.83
2023-02-01T08:03:39.529Z,5.60
2023-02-01T08:06:07.407Z,6.20
2023-02-01T08:08:34.123Z,5.30
2023-02-01T08:11:05.547Z,6.17
2023-02-01T08:13:32.352Z,6.03
2023-02-01T08:16:00.471Z,5.93
2023-02-01T08:18:27.391Z,6.07
2023-02-01T08:20:54.248Z,6.33
2023-02-01T08:23:21.968Z,6.03
2023-02-01T08:25:48.503Z,5.87
2023-02-01T08:28:15.534Z,6.63
2023-02-01T08:30:45.151Z,6.00
2023-02-01T08:33:12.557Z,6.57
2023-02-01T08:35:43.724Z,6.20
2023-02-01T08:38:11.026Z,6.13
2023-02-01T08:40:37.779Z,5.57
2023-02-01T08:43:04.297Z,6.03
2023-02-01T08:45:31.039Z,6.00
2023-02-01T08:47:58.186Z,5.77
2023-02-01T08:50:25.975Z,6.13
2023-02-01T08:52:53.698Z,5.83
2023-02-01T08:55:20.629Z,6.37
2023-02-01T08:57:47.440Z,6.10
2023-02-01T09:00:17.026Z,5.77
2023-02-01T09:02:44.076Z,6.07
2023-02-01T09:05:11.821Z,5.63
2023-02-01T09:07:38.638Z,7.37
2023-02-01T09:10:05.930Z,6.37
2023-02-01T09:12:34.132Z,6.67
2023-02-01T09:15:01.003Z,11.10
2023-02-01T09:19:55.494Z,6.07
2023-02-01T09:22:22.546Z,5.90
2023-02-01T09:24:49.177Z,5.90
2023-02-01T09:27:15.958Z,6.03
2023-02-01T09:29:42.575Z,6.77
2023-02-01T09:32:09.407Z,12.17
2023-02-01T09:34:36.693Z,5.40
2023-02-01T09:37:03.796Z,6.40
2023-02-01T09:39:33.275Z,5.97
2023-02-01T09:42:22.439Z,6.20
2023-02-01T09:45:10.785Z,6.53
2023-02-01T09:47:42.950Z,5.57
2023-02-01T09:50:22.047Z,6.50
2023-02-01T09:52:57.139Z,5.43
2023-02-01T09:55:32.988Z,5.80
2023-02-01T09:58:22.183Z,5.27
2023-02-01T10:00:57.683Z,5.53
2023-02-01T10:03:35.690Z,5.53
2023-02-01T10:06:31.055Z,5.83
2023-02-01T10:09:03.825Z,5.23
2023-02-01T10:11:49.054Z,5.60
2023-02-01T10:14:25.048Z,5.83
2023-02-01T10:17:19.994Z,5.47
2023-02-01T10:19:57.993Z,5.37
2023-02-01T10:23:13.817Z,5.43
2023-02-01T10:25:31.991Z,5.07
2023-02-01T10:28:00.947Z,5.40
2023-02-01T10:30:34.656Z,5.80
2023-02-01T10:33:25.727Z,6.03
2023-02-01T10:35:57.101Z,5.17
2023-02-01T10:38:29.655Z,5.37
2023-02-01T10:41:11.198Z,4.63
2023-02-01T10:43:37.793Z,5.23
2023-02-01T10:46:04.598Z,5.37
2023-02-01T10:48:32.438Z,5.07
2023-02-01T10:51:08.112Z,5.47
2023-02-01T10:53:38.406Z,5.30
2023-02-01T10:56:10.600Z,5.87
2023-02-01T10:58:45.505Z,5.93
2023-02-01T11:01:36.343Z,5.00
2023-02-01T11:04:06.044Z,5.33
2023-02-01T11:06:34.815Z,5.07
2023-02-01T11:09:11.338Z,4.17
2023-02-01T11:11:50.192Z,4.67
2023-02-01T11:14:25.406Z,4.97
2023-02-01T11:17:03.811Z,4.67
2023-02-01T11:19:30.522Z,5.40
2023-02-01T11:21:59.819Z,5.03
2023-02-01T11:24:30.326Z,5.00
2023-02-01T11:26:58.072Z,4.93
2023-02-01T11:29:30.925Z,6.67
2023-02-01T11:31:58.721Z,4.73
2023-02-01T11:34:37.186Z,5.97
2023-02-01T11:37:04.701Z,5.27
2023-02-01T11:39:33.200Z,4.73
2023-02-01T11:42:13.065Z,5.10
2023-02-01T11:44:41.746Z,5.33
2023-02-01T11:47:27.117Z,5.43
2023-02-01T11:50:02.773Z,6.50
2023-02-01T11:52:33.024Z,5.47
2023-02-01T11:55:05.969Z,4.10
2023-02-01T11:57:51.640Z,5.83
2023-02-01T12:00:47.270Z,4.90
2023-02-01T12:03:13.969Z,6.00
2023-02-01T12:06:10.020Z,5.10
2023-02-01T12:08:36.949Z,5.53
2023-02-01T12:11:24.753Z,4.33
2023-02-01T12:14:13.266Z,4.83
2023-02-01T12:17:34.296Z,4.50
2023-02-01T12:20:13.078Z,4.20
2023-02-01T12:22:45.516Z,5.37
2023-02-01T12:25:30.236Z,6.70
2023-02-01T12:28:02.976Z,5.47
2023-02-01T12:30:54.350Z,5.80
2023-02-01T12:33:38.495Z,5.63
2023-02-01T12:36:11.409Z,5.20
2023-02-01T12:38:46.907Z,4.30
2023-02-01T12:41:32.804Z,4.83
2023-02-01T12:44:01.483Z,4.73
2023-02-01T12:46:34.791Z,5.17
2023-02-01T12:49:03.134Z,5.50
2023-02-01T12:51:38.717Z,4.50
2023-02-01T12:54:16.958Z,5.13
2023-02-01T12:56:44.762Z,4.50
2023-02-01T12:59:25.924Z,4.97
2023-02-01T13:01:57.630Z,4.80
2023-02-01T13:04:28.681Z,4.83
2023-02-01T13:07:15.490Z,4.43
2023-02-01T13:09:49.151Z,5.40
2023-02-01T13:12:23.544Z,5.03
2023-02-01T13:15:01.600Z,4.87
2023-02-01T13:17:32.403Z,5.23
2023-02-01T13:20:04.727Z,4.47
2023-02-01T13:22:42.706Z,4.50
2023-02-01T13:25:41.480Z,4.70
2023-02-01T13:28:17.606Z,4.87
2023-02-01T13:31:06.440Z,4.57
2023-02-01T13:33:53.691Z,4.33
2023-02-01T13:36:35.352Z,4.23
2023-02-01T13:39:24.627Z,3.93
2023-02-01T13:41:54.345Z,4.27
2023-02-01T13:44:29.003Z,3.97
2023-02-01T13:47:04.528Z,4.20
2023-02-01T13:49:39.540Z,4.20
2023-02-01T13:52:06.626Z,5.00
2023-02-01T13:54:38.464Z,4.40
2023-02-01T13:57:07.404Z,5.00
2023-02-01T13:59:47.589Z,3.70
2023-02-01T14:02:42.421Z,4.60
2023-02-01T14:05:25.017Z,4.80
2023-02-01T14:08:44.233Z,4.93
2023-02-01T14:11:49.333Z,4.17
2023-02-01T14:14:15.920Z,5.87
2023-02-01T14:17:03.245Z,4.43
2023-02-01T14:19:35.119Z,4.00
2023-02-01T14:22:22.321Z,4.03
2023-02-01T14:24:55.244Z,4.83
2023-02-01T14:27:24.532Z,4.73
2023-02-01T14:29:59.095Z,4.00
2023-02-01T14:32:27.921Z,3.90
2023-02-01T14:34:58.093Z,4.63
2023-02-01T14:37:28.573Z,5.07
2023-02-01T14:40:15.494Z,5.23
2023-02-01T14:42:53.583Z,4.83
2023-02-01T14:45:20.678Z,4.10
2023-02-01T14:48:06.652Z,4.93
2023-02-01T14:50:42.115Z,5.00
2023-02-01T14:53:14.518Z,4.63
2023-02-01T14:56:05.664Z,5.27
2023-02-01T14:58:59.299Z,3.80
2023-02-01T15:01:34.752Z,3.90
2023-02-01T15:04:13.319Z,3.97
2023-02-01T15:06:42.265Z,3.50
2023-02-01T15:09:14.818Z,4.60
2023-02-01T15:12:00.704Z,3.90
2023-02-01T15:14:28.986Z,3.77
2023-02-01T15:16:55.996Z,4.93
2023-02-01T15:19:25.252Z,4.60
2023-02-01T15:21:54.875Z,4.60
2023-02-01T15:24:29.663Z,4.20
2023-02-01T15:26:57.560Z,4.67
2023-02-01T15:29:33.336Z,4.17
2023-02-01T15:32:00.513Z,4.37
2023-02-01T15:34:49.245Z,3.77
2023-02-01T15:37:17.363Z,3.97
2023-02-01T15:40:15.692Z,3.70
2023-02-01T15:42:54.344Z,4.20
2023-02-01T15:45:23.332Z,4.10
2023-02-01T15:47:51.731Z,4.00
2023-02-01T15:50:22.307Z,4.00
2023-02-01T15:52:51.689Z,5.90
2023-02-01T15:55:41.453Z,4.50
2023-02-01T15:58:13.951Z,4.13
2023-02-01T16:00:46.531Z,3.27
2023-02-01T16:03:28.466Z,4.60
2023-02-01T16:05:57.997Z,4.60
2023-02-01T16:08:26.887Z,4.20
2023-02-01T16:11:00.643Z,4.30
2023-02-01T16:13:27.282Z,3.97
2023-02-01T16:15:54.060Z,4.63
2023-02-01T16:18:20.997Z,4.77
2023-02-01T16:20:48.709Z,4.23
2023-02-01T16:23:15.507Z,4.97
2023-02-01T16:25:42.223Z,4.17
2023-02-01T16:28:09.416Z,3.97
2023-02-01T16:30:36.652Z,4.60
2023-02-01T16:33:04.079Z,6.40
2023-02-01T16:35:39.151Z,4.87
2023-02-01T16:38:14.093Z,4.37
2023-02-01T16:40:42.334Z,4.43
2023-02-01T16:43:27.314Z,4.73
2023-02-01T16:45:55.618Z,5.53
2023-02-01T16:48:25.914Z,5.63
2023-02-01T16:50:57.791Z,4.97
2023-02-01T16:53:25.862Z,5.33
2023-02-01T16:55:53.442Z,4.70
2023-02-01T16:58:21.457Z,5.00
2023-02-01T17:00:48.832Z,4.93
2023-02-01T17:03:20.136Z,7.27
2023-02-01T17:05:49.554Z,4.63
2023-02-01T17:08:20.413Z,4.90
2023-02-01T17:10:47.362Z,4.10
2023-02-01T17:13:16.099Z,3.23
2023-02-01T17:15:51.082Z,2.67
2023-02-01T17:18:18.828Z,2.40
2023-02-01T17:20:47.918Z,2.30
2023-02-01T17:23:16.367Z,2.60
2023-02-01T17:25:43.595Z,2.50
2023-02-01T17:28:10.379Z,2.97
2023-02-01T17:30:38.614Z,3.17
2023-02-01T17:33:20.817Z,2.40
2023-02-01T17:35:48.587Z,2.67
2023-02-01T17:38:15.256Z,2.73
2023-02-01T17:40:41.930Z,2.63
2023-02-01T17:43:13.690Z,2.93
2023-02-01T17:45:55.503Z,2.70
2023-02-01T17:48:23.437Z,3.50
2023-02-01T17:50:54.612Z,3.83
2023-02-01T17:53:24.757Z,3.83
2023-02-01T17:55:51.965Z,4.80
2023-02-01T17:58:19.003Z,6.53
2023-02-01T18:00:46.737Z,5.43
2023-02-01T18:03:26.129Z,5.23
2023-02-01T18:05:55.146Z,4.37
2023-02-01T18:08:26.509Z,4.70
2023-02-01T18:11:01.359Z,5.23
2023-02-01T18:13:29.236Z,4.80
2023-02-01T18:15:56.223Z,5.37
2023-02-01T18:18:22.798Z,4.93
2023-02-01T18:20:49.704Z,4.37
2023-02-01T18:23:21.037Z,4.73
2023-02-01T18:25:48.592Z,4.23
2023-02-01T18:28:15.967Z,3.47
2023-02-01T18:30:45.140Z,2.87
2023-02-01T18:33:13.645Z,2.75
2023-02-01T18:35:40.611Z,2.50
2023-02-01T18:38:07.690Z,1.90
2023-02-01T18:40:58.335Z,1.80
2023-02-01T18:43:25.471Z,1.87
2023-02-01T18:45:52.303Z,2.30
2023-02-01T18:48:21.263Z,1.93
2023-02-01T18:50:48.153Z,2.20
2023-02-01T18:53:22.044Z,1.67
2023-02-01T18:55:49.119Z,2.40
2023-02-01T18:58:17.404Z,2.00
2023-02-01T19:00:45.190Z,2.30
2023-02-01T19:03:12.949Z,2.00
2023-02-01T19:05:39.877Z,2.03
2023-02-01T19:08:06.669Z,2.10
2023-02-01T19:10:34.304Z,2.10
2023-02-01T19:13:00.942Z,2.70
2023-02-01T19:15:27.571Z,2.30
2023-02-01T19:17:55.329Z,2.37
2023-02-01T19:20:24.864Z,2.97
2023-02-01T19:22:52.783Z,2.97
2023-02-01T19:25:27.530Z,3.10
2023-02-01T19:27:54.595Z,5.20
2023-02-01T19:30:22.351Z,4.40
2023-02-01T19:32:49.273Z,3.57
2023-02-01T19:35:19.670Z,4.23
2023-02-01T19:37:47.904Z,4.33
2023-02-01T19:40:19.843Z,4.43
2023-02-01T19:42:47.394Z,5.37
2023-02-01T19:45:14.256Z,5.40
2023-02-01T19:47:41.212Z,6.03
2023-02-01T19:50:09.272Z,5.27
2023-02-01T19:52:36.664Z,5.33
2023-02-01T19:55:04.967Z,3.63
2023-02-01T19:57:32.179Z,3.83
2023-02-01T19:59:58.798Z,2.90
2023-02-01T20:02:27.950Z,2.53
2023-02-01T20:04:55.116Z,2.50
2023-02-01T20:07:22.535Z,2.50
2023-02-01T20:09:49.203Z,2.30
2023-02-01T20:12:16.460Z,2.80
2023-02-01T20:14:43.163Z,2.90
2023-02-01T20:17:13.954Z,2.27
2023-02-01T20:19:40.747Z,2.20
2023-02-01T20:22:07.298Z,2.17
2023-02-01T20:24:33.946Z,2.30
2023-02-01T20:27:01.591Z,3.00
2023-02-01T20:29:28.320Z,2.60
2023-02-01T20:31:54.983Z,2.70
2023-02-01T20:34:22.619Z,2.53
2023-02-01T20:36:49.221Z,2.70
2023-02-01T20:39:16.142Z,3.73
2023-02-01T20:41:43.732Z,5.33
2023-02-01T20:44:10.450Z,2.57
2023-02-01T20:46:36.998Z,2.53
2023-02-01T20:49:03.709Z,2.00
2023-02-01T20:51:30.270Z,2.80
2023-02-01T20:53:56.856Z,2.50
2023-02-01T20:56:23.537Z,2.17
2023-02-01T20:58:50.263Z,1.97
2023-02-01T21:01:16.957Z,3.07
2023-02-01T21:03:43.789Z,2.70
2023-02-01T21:06:12.778Z,3.00
2023-02-01T21:08:39.545Z,2.90
2023-02-01T21:11:09.172Z,2.93
2023-02-01T21:13:43.125Z,2.03
2023-02-01T21:16:14.042Z,2.67
2023-02-01T21:18:40.997Z,1.93
2023-02-01T21:21:13.329Z,2.23
2023-02-01T21:23:47.787Z,2.10
2023-02-01T21:26:17.602Z,2.43
2023-02-01T21:28:45.411Z,2.30
2023-02-01T21:31:18.352Z,1.67
2023-02-01T21:33:48.651Z,1.97
2023-02-01T21:36:19.637Z,2.13
2023-02-01T21:38:47.647Z,1.70
2023-02-01T21:41:32.937Z,1.67
2023-02-01T21:43:59.492Z,1.60
2023-02-01T21:46:26.820Z,2.70
2023-02-01T21:49:05.489Z,1.57
2023-02-01T21:51:35.299Z,1.87
2023-02-01T21:54:02.851Z,2.00
2023-02-01T21:56:29.565Z,1.87
2023-02-01T21:58:57.094Z,1.90
2023-02-01T22:01:27.470Z,1.80
2023-02-01T22:03:54.319Z,2.37
2023-02-01T22:06:29.263Z,1.97
2023-02-01T22:08:56.152Z,2.33
2023-02-01T22:11:23.079Z,2.23
2023-02-01T22:13:50.083Z,1.90
2023-02-01T22:16:18.318Z,1.90
2023-02-01T22:18:45.857Z,1.93
2023-02-01T22:21:12.480Z,2.50
2023-02-01T22:23:39.240Z,3.43
2023-02-01T22:26:10.675Z,3.73
2023-02-01T22:28:38.194Z,2.53
2023-02-01T22:31:07.959Z,2.50
2023-02-01T22:33:35.092Z,1.80
2023-02-01T22:36:02.656Z,2.43
2023-02-01T22:38:33.648Z,2.33
2023-02-01T22:41:02.606Z,2.27
2023-02-01T22:43:30.149Z,3.23
2023-02-01T22:46:05.441Z,2.17
2023-02-01T22:48:36.264Z,3.23
2023-02-01T22:51:03.971Z,3.17
2023-02-01T22:53:31.019Z,2.40
2023-02-01T22:56:05.250Z,2.67
2023-02-01T22:58:32.375Z,2.03
2023-02-01T23:01:10.076Z,2.50
2023-02-01T23:03:37.769Z,2.00
2023-02-01T23:06:05.448Z,2.20
2023-02-01T23:08:35.611Z,2.17
2023-02-01T23:11:09.252Z,2.00
2023-02-01T23:13:36.572Z,2.57
2023-02-01T23:16:11.572Z,2.47
2023-02-01T23:18:38.965Z,2.40
2023-02-01T23:21:07.386Z,2.00
2023-02-01T23:23:34.084Z,2.20
2023-02-01T23:26:00.927Z,1.73
2023-02-01T23:28:29.112Z,3.07
2023-02-01T23:30:55.988Z,2.60
2023-02-01T23:33:24.033Z,1.97
2023-02-01T23:35:57.801Z,2.00
2023-02-01T23:38:24.941Z,2.47
2023-02-01T23:40:52.948Z,2.13
2023-02-01T23:43:38.166Z,2.53
2023-02-01T23:46:04.835Z,2.17
2023-02-01T23:48:31.462Z,2.40
2023-02-01T23:50:58.099Z,2.13
2023-02-01T23:53:24.961Z,2.33
2023-02-01T23:55:53.875Z,2.13
2023-02-01T23:58:21.640Z,2.67
